sensor_id;sensor_type;location;lat;lon;timestamp;pressure;altitude;pressure_sealevel;temperature;humidity
65175;BME280;51761;42.126;24.752;2023-03-18T00:00:39;100167.94;;;6.73;60.71
65175;BME280;51761;42.126;24.752;2023-03-18T00:03:05;100182.69;;;6.84;60.21
65175;BME280;51761;42.126;24.752;2023-03-18T00:05:32;100169.59;;;6.81;59.52
65175;BME280;51761;42.126;24.752;2023-03-18T00:07:59;100178.75;;;6.85;59.56
65175;BME280;51761;42.126;24.752;2023-03-18T00:10:24;100162.81;;;6.79;60.34
65175;BME280;51761;42.126;24.752;2023-03-18T00:12:50;100179.78;;;6.67;60.24
65175;BME280;51761;42.126;24.752;2023-03-18T00:15:18;100167.84;;;6.63;59.85
65175;BME280;51761;42.126;24.752;2023-03-18T00:17:45;100173.19;;;6.85;58.97
65175;BME280;51761;42.126;24.752;2023-03-18T00:20:11;100171.28;;;6.93;58.55
65175;BME280;51761;42.126;24.752;2023-03-18T00:22:38;100177.09;;;6.77;59.05
65175;BME280;51761;42.126;24.752;2023-03-18T00:25:06;100169.50;;;6.71;59.28
65175;BME280;51761;42.126;24.752;2023-03-18T00:27:33;100163.25;;;6.84;59.39
65175;BME280;51761;42.126;24.752;2023-03-18T00:29:59;100148.47;;;6.70;59.10
65175;BME280;51761;42.126;24.752;2023-03-18T00:32:25;100141.56;;;6.46;59.87
65175;BME280;51761;42.126;24.752;2023-03-18T00:34:52;100155.13;;;6.58;60.90
65175;BME280;51761;42.126;24.752;2023-03-18T00:37:18;100159.22;;;6.75;59.88
65175;BME280;51761;42.126;24.752;2023-03-18T00:39:59;100133.47;;;6.74;59.15
65175;BME280;51761;42.126;24.752;2023-03-18T00:42:34;100137.91;;;6.86;59.00
65175;BME280;51761;42.126;24.752;2023-03-18T00:45:13;100146.31;;;7.00;58.82
65175;BME280;51761;42.126;24.752;2023-03-18T00:47:40;100135.13;;;6.86;59.19
65175;BME280;51761;42.126;24.752;2023-03-18T00:50:07;100124.63;;;6.65;59.78
65175;BME280;51761;42.126;24.752;2023-03-18T00:52:33;100145.78;;;6.80;60.75
65175;BME280;51761;42.126;24.752;2023-03-18T00:54:59;100121.19;;;6.79;59.56
65175;BME280;51761;42.126;24.752;2023-03-18T00:57:27;100140.75;;;6.96;60.22
65175;BME280;51761;42.126;24.752;2023-03-18T00:59:54;100143.53;;;7.00;58.91
65175;BME280;51761;42.126;24.752;2023-03-18T01:02:20;100133.66;;;7.06;58.53
65175;BME280;51761;42.126;24.752;2023-03-18T01:04:48;100142.78;;;7.03;59.15
65175;BME280;51761;42.126;24.752;2023-03-18T01:07:13;100136.41;;;6.95;58.72
65175;BME280;51761;42.126;24.752;2023-03-18T01:09:39;100138.69;;;6.86;59.23
65175;BME280;51761;42.126;24.752;2023-03-18T01:12:09;100137.53;;;6.91;58.90
65175;BME280;51761;42.126;24.752;2023-03-18T01:14:36;100141.91;;;6.92;59.73
65175;BME280;51761;42.126;24.752;2023-03-18T01:17:03;100123.50;;;6.70;60.72
65175;BME280;51761;42.126;24.752;2023-03-18T01:19:29;100141.88;;;6.85;60.02
65175;BME280;51761;42.126;24.752;2023-03-18T01:21:55;100119.19;;;6.76;59.87
65175;BME280;51761;42.126;24.752;2023-03-18T01:24:21;100111.25;;;6.78;60.23
65175;BME280;51761;42.126;24.752;2023-03-18T01:26:47;100109.66;;;6.77;60.47
65175;BME280;51761;42.126;24.752;2023-03-18T01:29:12;100132.38;;;6.89;60.54
65175;BME280;51761;42.126;24.752;2023-03-18T01:31:38;100106.47;;;6.75;60.97
65175;BME280;51761;42.126;24.752;2023-03-18T01:34:04;100115.16;;;6.70;61.80
65175;BME280;51761;42.126;24.752;2023-03-18T01:36:29;100128.59;;;6.61;62.31
65175;BME280;51761;42.126;24.752;2023-03-18T01:38:55;100125.75;;;6.54;62.48
65175;BME280;51761;42.126;24.752;2023-03-18T01:41:23;100127.22;;;6.41;62.84
65175;BME280;51761;42.126;24.752;2023-03-18T01:43:50;100116.53;;;6.43;63.07
65175;BME280;51761;42.126;24.752;2023-03-18T01:48:54;100124.28;;;6.23;64.00
65175;BME280;51761;42.126;24.752;2023-03-18T01:51:21;100100.69;;;6.00;64.50
65175;BME280;51761;42.126;24.752;2023-03-18T01:53:49;100121.72;;;6.05;64.54
65175;BME280;51761;42.126;24.752;2023-03-18T01:56:16;100095.47;;;5.95;63.66
65175;BME280;51761;42.126;24.752;2023-03-18T01:58:46;100116.97;;;6.05;64.35
65175;BME280;51761;42.126;24.752;2023-03-18T02:01:17;100118.63;;;6.13;63.97
65175;BME280;51761;42.126;24.752;2023-03-18T02:03:44;100099.44;;;5.94;64.49
65175;BME280;51761;42.126;24.752;2023-03-18T02:06:11;100117.75;;;6.02;64.83
65175;BME280;51761;42.126;24.752;2023-03-18T02:08:38;100098.56;;;5.87;65.19
65175;BME280;51761;42.126;24.752;2023-03-18T02:11:06;100112.97;;;5.99;64.95
65175;BME280;51761;42.126;24.752;2023-03-18T02:13:38;100124.13;;;6.06;64.61
65175;BME280;51761;42.126;24.752;2023-03-18T02:16:08;100098.59;;;5.90;64.97
65175;BME280;51761;42.126;24.752;2023-03-18T02:18:37;100113.78;;;6.03;64.37
65175;BME280;51761;42.126;24.752;2023-03-18T02:27:03;100116.16;;;6.01;64.40
65175;BME280;51761;42.126;24.752;2023-03-18T02:29:32;100111.38;;;6.02;64.66
65175;BME280;51761;42.126;24.752;2023-03-18T02:32:00;100116.81;;;5.91;64.95
65175;BME280;51761;42.126;24.752;2023-03-18T02:34:28;100112.19;;;6.02;64.58
65175;BME280;51761;42.126;24.752;2023-03-18T02:36:54;100114.97;;;6.02;64.75
65175;BME280;51761;42.126;24.752;2023-03-18T02:39:21;100098.66;;;5.94;64.85
65175;BME280;51761;42.126;24.752;2023-03-18T02:41:47;100098.19;;;5.88;64.74
65175;BME280;51761;42.126;24.752;2023-03-18T02:44:13;100098.53;;;5.83;64.92
65175;BME280;51761;42.126;24.752;2023-03-18T02:49:17;100119.28;;;5.96;64.95
65175;BME280;51761;42.126;24.752;2023-03-18T02:51:43;100104.75;;;5.77;65.30
65175;BME280;51761;42.126;24.752;2023-03-18T02:54:27;100102.44;;;5.79;65.47
65175;BME280;51761;42.126;24.752;2023-03-18T02:56:53;100122.06;;;6.00;65.03
65175;BME280;51761;42.126;24.752;2023-03-18T02:59:20;100104.06;;;5.83;64.73
65175;BME280;51761;42.126;24.752;2023-03-18T03:01:47;100111.66;;;5.90;64.80
65175;BME280;51761;42.126;24.752;2023-03-18T03:04:15;100111.38;;;5.98;65.04
65175;BME280;51761;42.126;24.752;2023-03-18T03:06:42;100126.06;;;6.02;64.68
65175;BME280;51761;42.126;24.752;2023-03-18T03:09:10;100128.00;;;5.98;64.69
65175;BME280;51761;42.126;24.752;2023-03-18T03:11:38;100106.44;;;5.81;65.17
65175;BME280;51761;42.126;24.752;2023-03-18T03:14:04;100119.34;;;6.03;64.83
65175;BME280;51761;42.126;24.752;2023-03-18T03:16:29;100128.84;;;6.02;64.61
65175;BME280;51761;42.126;24.752;2023-03-18T03:18:56;100117.16;;;5.83;64.70
65175;BME280;51761;42.126;24.752;2023-03-18T03:21:21;100134.69;;;5.94;65.52
65175;BME280;51761;42.126;24.752;2023-03-18T03:23:47;100112.34;;;5.80;65.49
65175;BME280;51761;42.126;24.752;2023-03-18T03:26:15;100112.78;;;5.82;64.94
65175;BME280;51761;42.126;24.752;2023-03-18T03:28:41;100125.06;;;5.84;64.06
65175;BME280;51761;42.126;24.752;2023-03-18T03:31:07;100116.06;;;5.94;63.61
65175;BME280;51761;42.126;24.752;2023-03-18T03:33:34;100134.44;;;6.09;63.26
65175;BME280;51761;42.126;24.752;2023-03-18T03:36:00;100135.28;;;6.13;63.40
65175;BME280;51761;42.126;24.752;2023-03-18T03:38:26;100135.31;;;6.17;63.68
65175;BME280;51761;42.126;24.752;2023-03-18T03:40:51;100106.91;;;5.90;63.59
65175;BME280;51761;42.126;24.752;2023-03-18T03:43:18;100115.34;;;6.01;62.95
65175;BME280;51761;42.126;24.752;2023-03-18T03:45:44;100136.88;;;6.14;62.97
65175;BME280;51761;42.126;24.752;2023-03-18T03:48:10;100140.56;;;6.25;62.54
65175;BME280;51761;42.126;24.752;2023-03-18T03:50:37;100110.38;;;6.20;63.28
65175;BME280;51761;42.126;24.752;2023-03-18T03:53:03;100120.53;;;6.06;62.83
65175;BME280;51761;42.126;24.752;2023-03-18T03:55:29;100125.38;;;6.12;63.15
65175;BME280;51761;42.126;24.752;2023-03-18T03:57:55;100119.28;;;6.00;63.39
65175;BME280;51761;42.126;24.752;2023-03-18T04:00:22;100139.53;;;6.04;63.71
65175;BME280;51761;42.126;24.752;2023-03-18T04:02:50;100132.84;;;6.08;63.51
65175;BME280;51761;42.126;24.752;2023-03-18T04:05:18;100141.66;;;6.17;63.36
65175;BME280;51761;42.126;24.752;2023-03-18T04:07:45;100139.19;;;6.09;63.50
65175;BME280;51761;42.126;24.752;2023-03-18T04:10:12;100144.00;;;6.12;63.73
65175;BME280;51761;42.126;24.752;2023-03-18T04:12:39;100144.78;;;6.12;64.98
65175;BME280;51761;42.126;24.752;2023-03-18T04:15:05;100143.59;;;6.13;64.98
65175;BME280;51761;42.126;24.752;2023-03-18T04:17:32;100140.78;;;6.10;64.39
65175;BME280;51761;42.126;24.752;2023-03-18T04:19:58;100130.78;;;6.02;64.42
65175;BME280;51761;42.126;24.752;2023-03-18T04:22:24;100152.31;;;6.12;64.94
65175;BME280;51761;42.126;24.752;2023-03-18T04:24:50;100142.84;;;6.16;64.73
65175;BME280;51761;42.126;24.752;2023-03-18T04:27:15;100151.91;;;6.13;64.70
65175;BME280;51761;42.126;24.752;2023-03-18T04:29:42;100152.22;;;6.05;64.92
65175;BME280;51761;42.126;24.752;2023-03-18T04:32:09;100133.91;;;5.97;64.72
65175;BME280;51761;42.126;24.752;2023-03-18T04:34:35;100151.13;;;6.13;65.05
65175;BME280;51761;42.126;24.752;2023-03-18T04:37:01;100149.59;;;6.19;65.04
65175;BME280;51761;42.126;24.752;2023-03-18T04:39:27;100149.50;;;6.08;64.64
65175;BME280;51761;42.126;24.752;2023-03-18T04:41:52;100145.31;;;5.88;65.15
65175;BME280;51761;42.126;24.752;2023-03-18T04:44:18;100142.88;;;5.83;65.57
65175;BME280;51761;42.126;24.752;2023-03-18T04:46:45;100159.75;;;5.75;66.06
65175;BME280;51761;42.126;24.752;2023-03-18T04:49:10;100139.41;;;5.60;66.00
65175;BME280;51761;42.126;24.752;2023-03-18T04:51:37;100142.59;;;5.62;66.65
65175;BME280;51761;42.126;24.752;2023-03-18T04:54:03;100158.56;;;5.72;66.10
65175;BME280;51761;42.126;24.752;2023-03-18T04:56:28;100151.53;;;5.78;66.06
65175;BME280;51761;42.126;24.752;2023-03-18T04:58:53;100142.72;;;5.73;66.08
65175;BME280;51761;42.126;24.752;2023-03-18T05:01:19;100153.03;;;5.76;66.14
65175;BME280;51761;42.126;24.752;2023-03-18T05:03:45;100154.03;;;5.90;64.71
65175;BME280;51761;42.126;24.752;2023-03-18T05:06:25;100163.16;;;5.91;66.14
65175;BME280;51761;42.126;24.752;2023-03-18T05:08:52;100156.03;;;5.93;65.43
65175;BME280;51761;42.126;24.752;2023-03-18T05:11:18;100152.06;;;5.91;66.34
65175;BME280;51761;42.126;24.752;2023-03-18T05:13:44;100155.19;;;5.86;65.82
65175;BME280;51761;42.126;24.752;2023-03-18T05:16:09;100156.72;;;5.83;65.79
65175;BME280;51761;42.126;24.752;2023-03-18T05:18:36;100155.25;;;5.93;66.20
65175;BME280;51761;42.126;24.752;2023-03-18T05:21:02;100162.09;;;6.02;65.23
65175;BME280;51761;42.126;24.752;2023-03-18T05:23:29;100127.06;;;5.87;65.06
65175;BME280;51761;42.126;24.752;2023-03-18T05:25:55;100162.25;;;6.16;64.86
65175;BME280;51761;42.126;24.752;2023-03-18T05:28:20;100163.41;;;6.12;64.50
65175;BME280;51761;42.126;24.752;2023-03-18T05:30:46;100139.81;;;5.95;65.12
65175;BME280;51761;42.126;24.752;2023-03-18T05:33:12;100148.53;;;5.94;64.73
65175;BME280;51761;42.126;24.752;2023-03-18T05:35:38;100148.91;;;5.92;64.70
65175;BME280;51761;42.126;24.752;2023-03-18T05:38:04;100167.19;;;5.97;64.93
65175;BME280;51761;42.126;24.752;2023-03-18T05:40:31;100166.91;;;6.09;63.86
65175;BME280;51761;42.126;24.752;2023-03-18T05:42:57;100157.53;;;6.20;63.91
65175;BME280;51761;42.126;24.752;2023-03-18T05:45:23;100161.06;;;6.17;63.46
65175;BME280;51761;42.126;24.752;2023-03-18T05:47:48;100180.28;;;6.36;63.51
65175;BME280;51761;42.126;24.752;2023-03-18T05:50:26;100171.13;;;6.32;62.89
65175;BME280;51761;42.126;24.752;2023-03-18T05:52:53;100174.63;;;6.25;62.92
65175;BME280;51761;42.126;24.752;2023-03-18T05:55:18;100178.69;;;6.35;62.42
65175;BME280;51761;42.126;24.752;2023-03-18T05:57:44;100159.13;;;6.21;62.24
65175;BME280;51761;42.126;24.752;2023-03-18T06:00:11;100159.53;;;6.23;62.38
65175;BME280;51761;42.126;24.752;2023-03-18T06:02:37;100157.69;;;6.34;62.75
65175;BME280;51761;42.126;24.752;2023-03-18T06:05:03;100162.41;;;6.33;62.09
65175;BME280;51761;42.126;24.752;2023-03-18T06:07:28;100183.59;;;6.52;62.88
65175;BME280;51761;42.126;24.752;2023-03-18T06:09:54;100160.97;;;6.50;63.24
65175;BME280;51761;42.126;24.752;2023-03-18T06:12:20;100176.97;;;6.63;62.57
65175;BME280;51761;42.126;24.752;2023-03-18T06:14:48;100180.91;;;6.62;61.80
65175;BME280;51761;42.126;24.752;2023-03-18T06:17:13;100188.00;;;6.53;61.91
65175;BME280;51761;42.126;24.752;2023-03-18T06:19:39;100182.00;;;6.51;62.06
65175;BME280;51761;42.126;24.752;2023-03-18T06:22:05;100177.16;;;6.41;62.63
65175;BME280;51761;42.126;24.752;2023-03-18T06:24:30;100176.69;;;6.32;62.08
65175;BME280;51761;42.126;24.752;2023-03-18T06:26:56;100160.09;;;6.39;61.93
65175;BME280;51761;42.126;24.752;2023-03-18T06:29:22;100148.34;;;6.52;62.34
65175;BME280;51761;42.126;24.752;2023-03-18T06:31:47;100149.47;;;6.44;61.53
65175;BME280;51761;42.126;24.752;2023-03-18T06:34:13;100173.88;;;6.72;61.63
65175;BME280;51761;42.126;24.752;2023-03-18T06:36:39;100159.22;;;6.75;62.02
65175;BME280;51761;42.126;24.752;2023-03-18T06:39:04;100150.97;;;6.85;61.25
65175;BME280;51761;42.126;24.752;2023-03-18T06:41:30;100167.00;;;7.06;61.25
65175;BME280;51761;42.126;24.752;2023-03-18T06:43:55;100142.00;;;7.02;61.06
65175;BME280;51761;42.126;24.752;2023-03-18T06:46:21;100167.94;;;7.31;60.74
65175;BME280;51761;42.126;24.752;2023-03-18T06:48:48;100163.56;;;7.30;60.67
65175;BME280;51761;42.126;24.752;2023-03-18T06:51:13;100163.22;;;7.38;59.53
65175;BME280;51761;42.126;24.752;2023-03-18T06:53:38;100161.34;;;7.60;60.52
65175;BME280;51761;42.126;24.752;2023-03-18T06:56:04;100165.06;;;7.88;59.23
65175;BME280;51761;42.126;24.752;2023-03-18T06:58:30;100163.50;;;7.94;59.67
65175;BME280;51761;42.126;24.752;2023-03-18T07:00:56;100160.06;;;8.39;57.71
65175;BME280;51761;42.126;24.752;2023-03-18T07:03:23;100162.47;;;9.00;54.51
65175;BME280;51761;42.126;24.752;2023-03-18T07:05:51;100158.84;;;9.27;54.03
65175;BME280;51761;42.126;24.752;2023-03-18T07:08:16;100136.69;;;9.92;50.90
65175;BME280;51761;42.126;24.752;2023-03-18T07:10:41;100151.84;;;10.63;49.62
65175;BME280;51761;42.126;24.752;2023-03-18T07:13:08;100153.56;;;10.50;49.47
65175;BME280;51761;42.126;24.752;2023-03-18T07:15:34;100155.69;;;10.25;50.24
65175;BME280;51761;42.126;24.752;2023-03-18T07:17:59;100163.25;;;10.28;49.65
65175;BME280;51761;42.126;24.752;2023-03-18T07:20:26;100161.56;;;10.41;49.25
65175;BME280;51761;42.126;24.752;2023-03-18T07:22:52;100159.34;;;10.73;49.86
65175;BME280;51761;42.126;24.752;2023-03-18T07:25:18;100154.78;;;10.93;48.76
65175;BME280;51761;42.126;24.752;2023-03-18T07:27:43;100162.22;;;11.09;49.14
65175;BME280;51761;42.126;24.752;2023-03-18T07:30:10;100137.34;;;10.78;49.33
65175;BME280;51761;42.126;24.752;2023-03-18T07:32:36;100126.31;;;10.64;48.59
65175;BME280;51761;42.126;24.752;2023-03-18T07:35:03;100136.03;;;10.93;48.65
65175;BME280;51761;42.126;24.752;2023-03-18T07:37:30;100143.09;;;11.04;49.02
65175;BME280;51761;42.126;24.752;2023-03-18T07:39:56;100152.94;;;10.76;47.60
65175;BME280;51761;42.126;24.752;2023-03-18T07:42:21;100149.44;;;10.65;49.75
65175;BME280;51761;42.126;24.752;2023-03-18T07:44:47;100154.63;;;10.66;49.86
65175;BME280;51761;42.126;24.752;2023-03-18T07:47:12;100149.81;;;10.67;50.17
65175;BME280;51761;42.126;24.752;2023-03-18T07:49:41;100136.75;;;10.57;48.55
65175;BME280;51761;42.126;24.752;2023-03-18T07:52:07;100152.28;;;10.58;49.42
65175;BME280;51761;42.126;24.752;2023-03-18T07:54:33;100152.03;;;10.38;49.22
65175;BME280;51761;42.126;24.752;2023-03-18T07:56:59;100131.41;;;10.15;49.45
65175;BME280;51761;42.126;24.752;2023-03-18T07:59:25;100155.38;;;10.05;49.91
65175;BME280;51761;42.126;24.752;2023-03-18T08:01:51;100150.25;;;9.93;50.42
65175;BME280;51761;42.126;24.752;2023-03-18T08:04:17;100153.09;;;9.83;51.41
65175;BME280;51761;42.126;24.752;2023-03-18T08:06:43;100163.94;;;9.53;52.90
65175;BME280;51761;42.126;24.752;2023-03-18T08:09:09;100161.97;;;9.53;52.87
65175;BME280;51761;42.126;24.752;2023-03-18T08:11:34;100151.63;;;9.43;54.14
65175;BME280;51761;42.126;24.752;2023-03-18T08:14:01;100148.47;;;9.31;54.31
65175;BME280;51761;42.126;24.752;2023-03-18T08:16:26;100167.97;;;9.41;53.54
65175;BME280;51761;42.126;24.752;2023-03-18T08:18:52;100162.03;;;9.36;53.12
65175;BME280;51761;42.126;24.752;2023-03-18T08:21:18;100162.03;;;9.22;54.40
65175;BME280;51761;42.126;24.752;2023-03-18T08:23:44;100174.00;;;9.19;53.81
65175;BME280;51761;42.126;24.752;2023-03-18T08:26:10;100185.50;;;9.28;53.41
65175;BME280;51761;42.126;24.752;2023-03-18T08:28:36;100178.31;;;9.34;52.73
65175;BME280;51761;42.126;24.752;2023-03-18T08:31:02;100178.75;;;9.19;53.07
65175;BME280;51761;42.126;24.752;2023-03-18T08:33:29;100174.38;;;9.11;54.83
65175;BME280;51761;42.126;24.752;2023-03-18T08:35:54;100169.22;;;9.09;54.49
65175;BME280;51761;42.126;24.752;2023-03-18T08:38:21;100153.72;;;9.08;53.90
65175;BME280;51761;42.126;24.752;2023-03-18T08:40:48;100175.59;;;9.24;54.28
65175;BME280;51761;42.126;24.752;2023-03-18T08:43:13;100173.97;;;9.16;54.14
65175;BME280;51761;42.126;24.752;2023-03-18T08:45:39;100179.50;;;9.47;54.82
65175;BME280;51761;42.126;24.752;2023-03-18T08:48:05;100170.34;;;9.50;53.85
65175;BME280;51761;42.126;24.752;2023-03-18T08:50:33;100175.09;;;9.49;53.03
65175;BME280;51761;42.126;24.752;2023-03-18T08:53:00;100175.53;;;9.48;53.24
65175;BME280;51761;42.126;24.752;2023-03-18T08:55:32;100184.63;;;9.59;53.62
65175;BME280;51761;42.126;24.752;2023-03-18T08:57:58;100188.59;;;9.68;53.15
65175;BME280;51761;42.126;24.752;2023-03-18T09:00:24;100186.59;;;9.72;50.85
65175;BME280;51761;42.126;24.752;2023-03-18T09:02:51;100184.53;;;9.94;50.30
65175;BME280;51761;42.126;24.752;2023-03-18T09:05:17;100174.97;;;9.91;51.14
65175;BME280;51761;42.126;24.752;2023-03-18T09:07:43;100187.00;;;9.71;50.69
65175;BME280;51761;42.126;24.752;2023-03-18T09:10:10;100195.75;;;9.80;49.97
65175;BME280;51761;42.126;24.752;2023-03-18T09:12:37;100199.75;;;9.68;50.47
65175;BME280;51761;42.126;24.752;2023-03-18T09:15:04;100194.16;;;11.52;100.00
65175;BME280;51761;42.126;24.752;2023-03-18T09:17:30;100200.84;;;11.65;80.80
65175;BME280;51761;42.126;24.752;2023-03-18T09:19:56;100198.91;;;12.26;91.30
65175;BME280;51761;42.126;24.752;2023-03-18T09:22:21;100201.91;;;13.17;88.53
65175;BME280;51761;42.126;24.752;2023-03-18T09:24:48;100188.59;;;13.67;75.81
65175;BME280;51761;42.126;24.752;2023-03-18T09:27:13;100208.91;;;13.94;68.62
65175;BME280;51761;42.126;24.752;2023-03-18T09:29:39;100205.34;;;13.28;67.96
65175;BME280;51761;42.126;24.752;2023-03-18T09:32:05;100215.34;;;13.29;48.76
65175;BME280;51761;42.126;24.752;2023-03-18T09:34:30;100205.59;;;13.37;51.61
65175;BME280;51761;42.126;24.752;2023-03-18T09:36:56;100215.78;;;13.28;48.58
65175;BME280;51761;42.126;24.752;2023-03-18T09:39:22;100219.97;;;12.93;42.52
65175;BME280;51761;42.126;24.752;2023-03-18T09:44:31;100186.69;;;11.79;43.55
65175;BME280;51761;42.126;24.752;2023-03-18T09:55:07;100230.75;;;10.81;46.51
65175;BME280;51761;42.126;24.752;2023-03-18T09:57:34;100228.91;;;10.57;46.34
65175;BME280;51761;42.126;24.752;2023-03-18T10:02:41;100248.72;;;9.87;48.28
65175;BME280;51761;42.126;24.752;2023-03-18T10:05:32;100243.59;;;9.61;49.22
65175;BME280;51761;42.126;24.752;2023-03-18T10:08:11;100235.66;;;9.35;50.07
65175;BME280;51761;42.126;24.752;2023-03-18T10:10:41;100223.75;;;9.03;50.91
65175;BME280;51761;42.126;24.752;2023-03-18T10:13:23;100244.84;;;8.97;51.35
65175;BME280;51761;42.126;24.752;2023-03-18T10:15:57;100241.25;;;8.90;52.82
65175;BME280;51761;42.126;24.752;2023-03-18T10:18:30;100244.03;;;8.83;52.71
65175;BME280;51761;42.126;24.752;2023-03-18T10:21:02;100243.22;;;8.86;53.39
65175;BME280;51761;42.126;24.752;2023-03-18T10:23:57;100246.44;;;8.98;52.77
65175;BME280;51761;42.126;24.752;2023-03-18T10:29:02;100244.44;;;8.81;52.49
65175;BME280;51761;42.126;24.752;2023-03-18T10:34:28;100241.25;;;9.07;51.69
65175;BME280;51761;42.126;24.752;2023-03-18T10:39:30;100250.78;;;9.34;51.78
65175;BME280;51761;42.126;24.752;2023-03-18T10:42:00;100244.00;;;9.56;50.79
65175;BME280;51761;42.126;24.752;2023-03-18T10:44:31;100237.56;;;9.76;50.24
65175;BME280;51761;42.126;24.752;2023-03-18T10:47:08;100238.34;;;9.84;50.38
65175;BME280;51761;42.126;24.752;2023-03-18T10:49:41;100245.09;;;9.93;46.21
65175;BME280;51761;42.126;24.752;2023-03-18T10:52:14;100236.41;;;9.74;47.72
65175;BME280;51761;42.126;24.752;2023-03-18T10:54:44;100235.16;;;9.92;47.04
65175;BME280;51761;42.126;24.752;2023-03-18T10:57:20;100231.84;;;10.25;47.05
65175;BME280;51761;42.126;24.752;2023-03-18T10:59:48;100215.47;;;10.31;46.78
65175;BME280;51761;42.126;24.752;2023-03-18T11:08:03;100236.41;;;10.63;44.79
65175;BME280;51761;42.126;24.752;2023-03-18T11:10:37;100232.50;;;10.54;44.26
65175;BME280;51761;42.126;24.752;2023-03-18T11:13:15;100226.03;;;10.67;45.74
65175;BME280;51761;42.126;24.752;2023-03-18T11:15:47;100218.03;;;10.69;45.79
65175;BME280;51761;42.126;24.752;2023-03-18T11:18:16;100223.81;;;10.99;45.42
65175;BME280;51761;42.126;24.752;2023-03-18T11:20:44;100208.22;;;11.01;44.40
65175;BME280;51761;42.126;24.752;2023-03-18T11:26:23;100223.00;;;11.02;44.95
65175;BME280;51761;42.126;24.752;2023-03-18T11:28:54;100211.50;;;10.93;45.70
65175;BME280;51761;42.126;24.752;2023-03-18T11:31:20;100198.81;;;10.82;45.46
65175;BME280;51761;42.126;24.752;2023-03-18T11:33:46;100227.03;;;10.36;46.31
65175;BME280;51761;42.126;24.752;2023-03-18T11:36:22;100225.88;;;10.23;46.96
65175;BME280;51761;42.126;24.752;2023-03-18T11:39:01;100219.19;;;9.96;47.74
65175;BME280;51761;42.126;24.752;2023-03-18T11:41:28;100224.84;;;9.75;48.54
65175;BME280;51761;42.126;24.752;2023-03-18T11:46:34;100223.28;;;9.71;48.79
65175;BME280;51761;42.126;24.752;2023-03-18T11:49:02;100198.25;;;9.43;48.53
65175;BME280;51761;42.126;24.752;2023-03-18T11:51:47;100209.75;;;9.59;48.88
65175;BME280;51761;42.126;24.752;2023-03-18T12:13:12;100198.59;;;11.06;45.35
65175;BME280;51761;42.126;24.752;2023-03-18T12:16:01;100196.41;;;11.27;44.32
65175;BME280;51761;42.126;24.752;2023-03-18T12:24:31;100189.41;;;11.46;
65175;BME280;51761;42.126;24.752;2023-03-18T12:32:48;100184.63;;;11.46;43.51
65175;BME280;51761;42.126;24.752;2023-03-18T12:35:48;100194.25;;;11.42;43.98
65175;BME280;51761;42.126;24.752;2023-03-18T12:49:29;100181.31;;;13.04;40.49
65175;BME280;51761;42.126;24.752;2023-03-18T12:52:10;100181.47;;;13.20;39.35
65175;BME280;51761;42.126;24.752;2023-03-18T12:54:53;100172.22;;;12.97;40.29
65175;BME280;51761;42.126;24.752;2023-03-18T13:00:17;100169.19;;;13.11;38.94
65175;BME280;51761;42.126;24.752;2023-03-18T13:03:00;100164.69;;;13.17;38.88
65175;BME280;51761;42.126;24.752;2023-03-18T13:14:02;100162.31;;;13.58;38.69
65175;BME280;51761;42.126;24.752;2023-03-18T13:16:30;100132.28;;;13.35;37.98
65175;BME280;51761;42.126;24.752;2023-03-18T13:18:58;100152.09;;;13.67;37.46
65175;BME280;51761;42.126;24.752;2023-03-18T13:21:29;100141.47;;;13.78;37.04
65175;BME280;51761;42.126;24.752;2023-03-18T13:24:18;100146.06;;;13.88;38.57
65175;BME280;51761;42.126;24.752;2023-03-18T13:27:05;100147.06;;;13.98;38.74
65175;BME280;51761;42.126;24.752;2023-03-18T13:29:53;100141.09;;;13.76;37.37
65175;BME280;51761;42.126;24.752;2023-03-18T13:40:59;100131.06;;;14.33;35.47
65175;BME280;51761;42.126;24.752;2023-03-18T13:43:31;100127.00;;;14.19;35.38
65175;BME280;51761;42.126;24.752;2023-03-18T13:45:58;100136.41;;;14.09;35.86
65175;BME280;51761;42.126;24.752;2023-03-18T13:50:53;100115.31;;;14.01;36.29
65175;BME280;51761;42.126;24.752;2023-03-18T13:58:27;100129.72;;;14.03;35.47
65175;BME280;51761;42.126;24.752;2023-03-18T14:13:59;100118.34;;;13.71;36.58
65175;BME280;51761;42.126;24.752;2023-03-18T14:16:35;100119.34;;;13.61;35.80
65175;BME280;51761;42.126;24.752;2023-03-18T14:19:24;100093.31;;;13.60;35.91
65175;BME280;51761;42.126;24.752;2023-03-18T14:27:52;100106.25;;;13.54;35.62
65175;BME280;51761;42.126;24.752;2023-03-18T14:35:47;100086.13;;;12.71;36.42
65175;BME280;51761;42.126;24.752;2023-03-18T14:38:23;100101.28;;;12.77;36.71
65175;BME280;51761;42.126;24.752;2023-03-18T14:40:54;100097.16;;;12.81;36.42
65175;BME280;51761;42.126;24.752;2023-03-18T14:43:27;100097.78;;;12.69;36.82
65175;BME280;51761;42.126;24.752;2023-03-18T14:45:58;100098.06;;;12.75;36.86
65175;BME280;51761;42.126;24.752;2023-03-18T14:48:29;100096.94;;;12.72;36.90
65175;BME280;51761;42.126;24.752;2023-03-18T14:50:56;100081.31;;;12.49;37.18
65175;BME280;51761;42.126;24.752;2023-03-18T14:53:47;100097.06;;;12.65;37.41
65175;BME280;51761;42.126;24.752;2023-03-18T14:56:20;100099.56;;;12.83;37.30
65175;BME280;51761;42.126;24.752;2023-03-18T14:58:47;100088.16;;;12.70;37.00
65175;BME280;51761;42.126;24.752;2023-03-18T15:01:17;100094.66;;;12.64;37.48
65175;BME280;51761;42.126;24.752;2023-03-18T15:03:47;100086.34;;;12.34;37.94
65175;BME280;51761;42.126;24.752;2023-03-18T15:06:21;100087.97;;;12.32;37.79
65175;BME280;51761;42.126;24.752;2023-03-18T15:09:08;100091.59;;;12.32;37.55
65175;BME280;51761;42.126;24.752;2023-03-18T15:11:40;100072.25;;;12.15;38.00